Time;durP1;ratioP1;P1;durP2;ratioP2;P2;SDS_P1;SDS_P2;PMS_P1;PMS_P2;Temp;Humidity;BMP_temperature;BMP_pressure;BME280_temperature;BME280_humidity;BME280_pressure;Samples;Min_cycle;Max_cycle;Signal;HPM_P1;HPM_P2
2021/09/27 00:01:38;;;;;;;;;;;16.70;99.90;;;;;;5091504;28;20310;-87
2021/09/27 00:04:04;;;;;;;;;;;16.70;99.90;;;;;;5082914;28;19980;-87
2021/09/27 00:06:31;;;;;;;;;;;16.70;99.90;;;;;;5090165;28;19965;-87
2021/09/27 00:08:59;;;;;;;;;;;16.70;99.90;;;;;;5087038;28;19959;-87
2021/09/27 00:11:26;;;;;;;;;;;16.60;99.90;;;;;;5088120;28;19944;-87
2021/09/27 00:13:53;;;;;;;;;;;16.70;99.90;;;;;;5088276;28;19974;-87
2021/09/27 00:16:20;;;;;;;;;;;16.60;99.90;;;;;;5091319;28;19962;-87
2021/09/27 00:18:46;;;;;;;;;;;16.60;99.90;;;;;;5090746;28;19943;-86
2021/09/27 00:21:15;;;;;;;;;;;16.60;99.90;;;;;;5086739;28;19951;-86
2021/09/27 00:23:42;;;;;;;;;;;16.60;99.90;;;;;;5092426;28;19972;-86
2021/09/27 00:26:10;;;;;;;;;;;16.50;99.90;;;;;;5101334;28;19943;-86
2021/09/27 00:28:36;;;;;;;;;;;16.50;99.90;;;;;;5085341;28;19957;-86
2021/09/27 00:31:03;;;;;;;;;;;16.50;99.90;;;;;;5089308;28;19957;-87
2021/09/27 00:33:30;;;;;;;;;;;16.50;99.90;;;;;;5091483;28;19943;-87
2021/09/27 00:35:57;;;;;;;;;;;16.50;99.90;;;;;;5088093;28;19959;-86
2021/09/27 00:38:24;;;;;;;;;;;16.50;99.90;;;;;;5092865;28;19971;-87
2021/09/27 00:40:52;;;;;;;;;;;16.40;99.90;;;;;;5089760;28;19943;-87
2021/09/27 00:43:22;;;;;;;;;;;16.40;99.90;;;;;;5096734;28;19969;-86
2021/09/27 00:45:49;;;;;;;;;;;16.40;99.90;;;;;;5098585;28;19958;-86
2021/09/27 00:48:16;;;;;;;;;;;16.40;99.90;;;;;;5099641;28;19953;-86
2021/09/27 00:50:45;;;;;;;;;;;16.40;99.90;;;;;;5099113;28;19972;-87
2021/09/27 00:53:15;;;;;;;;;;;16.40;99.90;;;;;;5078611;28;20358;-87
2021/09/27 00:55:42;;;;;;;;;;;16.40;99.90;;;;;;5077045;28;20034;-86
2021/09/27 00:58:09;;;;;;;;;;;16.30;99.90;;;;;;5076992;28;20317;-86
2021/09/27 01:00:37;;;;;;;;;;;16.30;99.90;;;;;;5077161;28;19941;-87
2021/09/27 01:03:03;;;;;;;;;;;16.30;99.90;;;;;;5076900;28;19948;-86
2021/09/27 01:05:30;;;;;;;;;;;16.30;99.90;;;;;;5076497;28;19963;-86
2021/09/27 01:08:01;;;;;;;;;;;16.30;99.90;;;;;;5077126;28;20006;-87
2021/09/27 01:10:48;;;;;;;;;;;16.30;99.90;;;;;;5076293;28;19944;-87
2021/09/27 01:13:20;;;;;;;;;;;16.30;99.90;;;;;;5076147;28;19987;-86
2021/09/27 01:15:53;;;;;;;;;;;16.20;99.90;;;;;;5076601;28;20326;-86
2021/09/27 01:18:28;;;;;;;;;;;16.30;99.90;;;;;;5077881;28;19941;-86
2021/09/27 01:21:07;;;;;;;;;;;16.30;99.90;;;;;;5076940;28;20304;-86
2021/09/27 01:23:59;;;;;;;;;;;16.30;99.90;;;;;;5075421;28;20390;-86
2021/09/27 01:26:33;;;;;;;;;;;16.20;99.90;;;;;;5076205;28;19956;-86
2021/09/27 01:29:07;;;;;;;;;;;16.30;99.90;;;;;;5076391;28;19956;-86
2021/09/27 01:31:41;;;;;;;;;;;16.30;99.90;;;;;;5077034;28;20339;-86
2021/09/27 01:34:11;;;;;;;;;;;16.20;99.90;;;;;;5077376;28;19935;-86
2021/09/27 01:36:42;;;;;;;;;;;16.20;99.90;;;;;;5076009;28;20002;-86
2021/09/27 01:39:11;;;;;;;;;;;16.20;99.90;;;;;;5075450;28;20049;-86
2021/09/27 01:41:42;;;;;;;;;;;16.20;99.90;;;;;;5075139;28;19942;-86
2021/09/27 01:44:12;;;;;;;;;;;16.20;99.90;;;;;;5075850;28;19940;-86
2021/09/27 01:46:41;;;;;;;;;;;16.10;99.90;;;;;;5075321;28;19965;-86
2021/09/27 01:49:12;;;;;;;;;;;16.20;99.90;;;;;;5075449;28;19969;-86
2021/09/27 01:51:44;;;;;;;;;;;16.10;99.90;;;;;;5075338;28;19937;-86
2021/09/27 01:54:16;;;;;;;;;;;16.20;99.90;;;;;;5085145;28;19927;-87
2021/09/27 01:56:48;;;;;;;;;;;16.20;99.90;;;;;;5098820;28;19948;-86
2021/09/27 01:59:16;;;;;;;;;;;16.20;99.90;;;;;;5098573;28;19966;-86
2021/09/27 02:01:48;;;;;;;;;;;16.20;99.90;;;;;;5098594;28;19938;-86
2021/09/27 02:04:18;;;;;;;;;;;16.20;99.90;;;;;;5098751;28;19939;-86
2021/09/27 02:06:47;;;;;;;;;;;16.20;99.90;;;;;;5099058;28;19959;-86
2021/09/27 02:09:16;;;;;;;;;;;16.20;99.90;;;;;;5098704;28;19955;-86
2021/09/27 02:11:43;;;;;;;;;;;16.20;99.90;;;;;;5088183;28;19945;-86
2021/09/27 02:14:13;;;;;;;;;;;16.20;99.90;;;;;;5079721;28;19989;-86
2021/09/27 02:16:43;;;;;;;;;;;16.20;99.90;;;;;;5075464;28;19957;-86
2021/09/27 02:19:12;;;;;;;;;;;16.20;99.90;;;;;;5083726;28;19950;-86
2021/09/27 02:21:43;;;;;;;;;;;16.20;99.90;;;;;;5091857;28;20434;-86
2021/09/27 02:24:16;;;;;;;;;;;15.90;99.90;;;;;;5088005;28;19921;-86
2021/09/27 02:26:44;;;;;;;;;;;16.10;99.90;;;;;;5092481;28;20025;-86
2021/09/27 02:29:10;;;;;;;;;;;16.20;99.90;;;;;;5074601;28;19954;-86
2021/09/27 02:31:40;;;;;;;;;;;16.10;99.90;;;;;;5074993;28;20347;-86
2021/09/27 02:34:08;;;;;;;;;;;16.10;99.90;;;;;;5081893;28;20011;-86
2021/09/27 02:36:36;;;;;;;;;;;16.10;99.90;;;;;;5074162;28;20021;-86
2021/09/27 02:39:07;;;;;;;;;;;16.10;99.90;;;;;;5075201;28;20365;-86
2021/09/27 02:41:36;;;;;;;;;;;16.10;99.90;;;;;;5083601;28;20348;-87
2021/09/27 02:44:03;;;;;;;;;;;16.10;99.90;;;;;;5074188;28;19946;-86
2021/09/27 02:46:30;;;;;;;;;;;16.10;99.90;;;;;;5078063;28;19967;-86
2021/09/27 02:48:58;;;;;;;;;;;16.20;99.90;;;;;;5074634;28;19972;-87
2021/09/27 02:51:26;;;;;;;;;;;16.10;99.90;;;;;;5074623;28;19949;-87
2021/09/27 02:53:53;;;;;;;;;;;16.10;99.90;;;;;;5074987;28;19943;-86
2021/09/27 02:56:34;;;;;;;;;;;16.20;99.90;;;;;;5074729;28;19961;-86
2021/09/27 02:59:09;;;;;;;;;;;16.20;99.90;;;;;;5075276;28;19941;-86
2021/09/27 03:01:38;;;;;;;;;;;16.20;99.90;;;;;;5076732;28;19942;-87
2021/09/27 03:04:07;;;;;;;;;;;17.70;99.90;;;;;;5075142;28;19996;-86
2021/09/27 03:06:50;;;;;;;;;;;16.30;99.90;;;;;;5075155;28;19956;-86
2021/09/27 03:09:21;;;;;;;;;;;16.30;99.90;;;;;;5075072;28;19995;-86
2021/09/27 03:12:05;;;;;;;;;;;16.30;99.90;;;;;;5081053;28;19964;-85
2021/09/27 03:14:49;;;;;;;;;;;16.30;99.90;;;;;;5084377;28;19968;-85
2021/09/27 03:17:20;;;;;;;;;;;16.30;99.90;;;;;;5082939;28;19944;-85
2021/09/27 03:19:52;;;;;;;;;;;16.30;99.90;;;;;;5076274;28;19986;-86
2021/09/27 03:22:21;;;;;;;;;;;16.30;99.90;;;;;;5074859;28;19965;-86
2021/09/27 03:24:58;;;;;;;;;;;16.30;99.90;;;;;;5074938;28;19946;-85
2021/09/27 03:27:32;;;;;;;;;;;16.20;99.90;;;;;;5074518;28;19937;-85
2021/09/27 03:30:03;;;;;;;;;;;16.30;99.90;;;;;;5075026;28;20016;-85
2021/09/27 03:32:34;;;;;;;;;;;16.30;99.90;;;;;;5076089;28;19939;-86
2021/09/27 03:35:03;;;;;;;;;;;16.40;99.90;;;;;;5076228;28;19940;-86
2021/09/27 03:37:36;;;;;;;;;;;16.40;99.90;;;;;;5074775;28;19945;-85
2021/09/27 03:40:15;;;;;;;;;;;16.40;99.90;;;;;;5076176;28;19937;-86
2021/09/27 03:42:45;;;;;;;;;;;16.40;99.90;;;;;;5075719;28;19996;-86
2021/09/27 03:45:14;;;;;;;;;;;16.50;99.90;;;;;;5074420;28;19963;-86
2021/09/27 03:47:45;;;;;;;;;;;16.50;99.90;;;;;;5075402;28;19993;-86
2021/09/27 03:50:16;;;;;;;;;;;16.50;99.90;;;;;;5075089;28;19968;-86
2021/09/27 03:52:44;;;;;;;;;;;16.50;99.90;;;;;;5075052;28;19966;-86
2021/09/27 03:55:13;;;;;;;;;;;16.50;99.90;;;;;;5076089;28;20000;-85
2021/09/27 03:57:42;;;;;;;;;;;16.50;99.90;;;;;;5083903;28;19943;-86
2021/09/27 04:00:13;;;;;;;;;;;16.50;99.90;;;;;;5094592;28;19943;-86
2021/09/27 04:02:42;;;;;;;;;;;16.50;99.90;;;;;;5079554;28;19937;-86
2021/09/27 04:05:12;;;;;;;;;;;16.50;99.90;;;;;;5077934;28;20012;-86
2021/09/27 04:07:48;;;;;;;;;;;16.50;99.90;;;;;;5078300;28;19992;-86
2021/09/27 04:10:17;;;;;;;;;;;16.50;99.90;;;;;;5092172;28;20005;-85
2021/09/27 04:12:48;;;;;;;;;;;16.50;99.90;;;;;;5101710;28;19957;-85
2021/09/27 04:15:20;;;;;;;;;;;16.60;99.90;;;;;;5101355;28;19976;-86
2021/09/27 04:17:56;;;;;;;;;;;16.60;99.90;;;;;;5094513;28;19964;-86
2021/09/27 04:20:25;;;;;;;;;;;16.60;99.90;;;;;;5083590;28;19992;-86
2021/09/27 04:22:57;;;;;;;;;;;16.50;99.90;;;;;;5082441;28;19947;-86
2021/09/27 04:25:30;;;;;;;;;;;16.50;99.90;;;;;;5101219;28;19957;-86
2021/09/27 04:28:11;;;;;;;;;;;16.50;99.90;;;;;;5079421;28;19941;-86
2021/09/27 04:31:08;;;;;;;;;;;16.50;99.90;;;;;;5077185;28;19955;-86
2021/09/27 04:33:45;;;;;;;;;;;16.60;99.90;;;;;;5029687;28;19925;-86
2021/09/27 04:36:16;;;;;;;;;;;16.60;99.90;;;;;;5071152;28;19985;-86
2021/09/27 04:38:43;;;;;;;;;;;16.50;99.90;;;;;;5098871;28;19962;-86
2021/09/27 04:41:21;;;;;;;;;;;16.60;99.90;;;;;;5098850;28;19941;-86
2021/09/27 04:43:51;;;;;;;;;;;16.60;99.90;;;;;;5099735;28;19941;-86
2021/09/27 04:46:21;;;;;;;;;;;16.60;99.90;;;;;;5097655;28;19981;-86
2021/09/27 04:48:57;;;;;;;;;;;16.60;99.90;;;;;;5080170;28;20016;-86
2021/09/27 04:51:31;;;;;;;;;;;16.60;99.90;;;;;;5077534;28;20355;-85
2021/09/27 04:54:06;;;;;;;;;;;16.60;99.90;;;;;;5078042;28;19981;-85
2021/09/27 04:56:37;;;;;;;;;;;16.60;99.90;;;;;;5086998;28;19952;-85
2021/09/27 04:59:09;;;;;;;;;;;16.60;99.90;;;;;;5096144;28;19946;-85
2021/09/27 05:01:52;;;;;;;;;;;16.60;99.90;;;;;;5096537;28;19926;-85
2021/09/27 05:04:31;;;;;;;;;;;16.60;99.90;;;;;;5097736;28;19946;-85
2021/09/27 05:07:09;;;;;;;;;;;16.60;99.90;;;;;;5098606;28;19967;-85
2021/09/27 05:09:45;;;;;;;;;;;16.60;99.90;;;;;;5097678;28;20086;-85
2021/09/27 05:12:18;;;;;;;;;;;16.70;99.90;;;;;;5098496;28;19939;-85
2021/09/27 05:15:02;;;;;;;;;;;16.60;99.90;;;;;;5096261;28;19938;-85
2021/09/27 05:17:37;;;;;;;;;;;16.60;99.90;;;;;;5079020;28;19969;-85
2021/09/27 05:20:17;;;;;;;;;;;16.60;99.90;;;;;;5079011;28;20399;-85
2021/09/27 05:22:54;;;;;;;;;;;16.60;99.90;;;;;;5080261;28;19941;-84
2021/09/27 05:25:39;;;;;;;;;;;16.60;99.90;;;;;;5079274;28;19970;-84
2021/09/27 05:28:26;;;;;;;;;;;16.60;99.90;;;;;;5080870;28;19968;-84
2021/09/27 05:31:01;;;;;;;;;;;16.50;99.90;;;;;;5055868;28;19959;-83
2021/09/27 05:33:38;;;;;;;;;;;16.60;99.90;;;;;;5081752;28;19992;-83
2021/09/27 05:36:24;;;;;;;;;;;16.60;99.90;;;;;;5081279;28;19960;-84
2021/09/27 05:38:55;;;;;;;;;;;16.60;99.90;;;;;;5098478;28;19943;-84
2021/09/27 05:41:28;;;;;;;;;;;16.60;99.90;;;;;;5083896;28;19941;-85
2021/09/27 05:44:02;;;;;;;;;;;16.60;99.90;;;;;;5078833;28;19946;-85
2021/09/27 05:46:35;;;;;;;;;;;16.60;99.90;;;;;;5080041;28;19968;-84
2021/09/27 05:49:04;;;;;;;;;;;16.60;99.90;;;;;;5084833;28;20018;-84
2021/09/27 05:51:36;;;;;;;;;;;16.70;99.90;;;;;;5079494;28;19983;-84
2021/09/27 05:54:13;;;;;;;;;;;16.70;99.90;;;;;;5078145;28;19947;-84
2021/09/27 05:56:42;;;;;;;;;;;16.70;99.90;;;;;;5079296;28;20344;-84
2021/09/27 05:59:12;;;;;;;;;;;16.70;99.90;;;;;;5080570;28;19941;-85
2021/09/27 06:01:45;;;;;;;;;;;16.60;99.90;;;;;;5080824;28;19991;-84
2021/09/27 06:04:17;;;;;;;;;;;16.60;99.90;;;;;;5078735;28;19941;-85
2021/09/27 06:06:53;;;;;;;;;;;16.70;99.90;;;;;;5080458;28;19962;-85
2021/09/27 06:09:53;;;;;;;;;;;16.70;99.90;;;;;;5079924;28;20025;-86
2021/09/27 06:12:23;;;;;;;;;;;16.80;99.90;;;;;;5082153;28;20313;-85
2021/09/27 06:14:51;;;;;;;;;;;16.80;99.90;;;;;;5081000;28;19989;-85
2021/09/27 06:17:24;;;;;;;;;;;17.20;99.90;;;;;;5080656;28;19947;-85
2021/09/27 06:19:54;;;;;;;;;;;16.80;99.90;;;;;;5079769;28;19939;-84
2021/09/27 06:22:28;;;;;;;;;;;16.80;99.90;;;;;;5079939;28;19985;-85
2021/09/27 06:24:58;;;;;;;;;;;16.80;99.90;;;;;;5080232;28;19996;-85
2021/09/27 06:27:31;;;;;;;;;;;16.90;99.90;;;;;;5080991;28;19990;-85
2021/09/27 06:30:02;;;;;;;;;;;16.90;99.90;;;;;;5080283;28;20005;-84
2021/09/27 06:32:34;;;;;;;;;;;17.00;99.90;;;;;;5088982;28;19947;-83
2021/09/27 06:35:02;;;;;;;;;;;17.00;99.90;;;;;;5098050;28;19959;-83
2021/09/27 06:37:30;;;;;;;;;;;17.00;99.90;;;;;;5098248;28;19920;-83
2021/09/27 06:39:57;;;;;;;;;;;17.00;99.90;;;;;;5099072;28;19943;-84
2021/09/27 06:42:23;;;;;;;;;;;17.00;99.90;;;;;;5083867;28;19973;-84
2021/09/27 06:44:52;;;;;;;;;;;17.00;99.90;;;;;;5078654;28;19994;-84
2021/09/27 06:47:19;;;;;;;;;;;17.10;99.90;;;;;;5080142;28;19974;-85
2021/09/27 06:49:45;;;;;;;;;;;17.10;99.90;;;;;;5081368;28;19986;-83
2021/09/27 06:52:12;;;;;;;;;;;17.10;99.90;;;;;;5092405;28;19943;-83
2021/09/27 06:54:39;;;;;;;;;;;17.10;99.90;;;;;;5094913;28;19945;-84
2021/09/27 06:57:06;;;;;;;;;;;17.10;99.90;;;;;;5091580;28;19965;-86
2021/09/27 06:59:33;;;;;;;;;;;17.10;99.90;;;;;;5084705;28;19942;-84
2021/09/27 07:01:59;;;;;;;;;;;17.20;99.90;;;;;;5081119;28;19948;-84
2021/09/27 07:04:26;;;;;;;;;;;17.20;99.90;;;;;;5080619;28;19952;-84
2021/09/27 07:06:52;;;;;;;;;;;17.20;99.90;;;;;;5093508;28;19943;-84
2021/09/27 07:09:19;;;;;;;;;;;17.20;99.90;;;;;;5089615;28;20324;-85
2021/09/27 07:11:47;;;;;;;;;;;17.30;99.90;;;;;;5079044;28;20303;-84
2021/09/27 07:14:13;;;;;;;;;;;17.30;99.90;;;;;;5077566;28;19944;-84
2021/09/27 07:16:41;;;;;;;;;;;17.30;99.90;;;;;;5095143;28;19959;-84
2021/09/27 07:19:08;;;;;;;;;;;17.30;99.90;;;;;;5093887;28;19949;-84
2021/09/27 07:21:35;;;;;;;;;;;17.40;99.90;;;;;;5094204;28;19945;-84
2021/09/27 07:24:02;;;;;;;;;;;17.40;99.90;;;;;;5096680;28;19947;-84
2021/09/27 07:26:29;;;;;;;;;;;17.40;99.90;;;;;;5083896;28;19959;-85
2021/09/27 07:28:57;;;;;;;;;;;17.50;99.90;;;;;;5081668;28;20361;-85
2021/09/27 07:31:28;;;;;;;;;;;17.60;99.90;;;;;;5085446;28;20367;-86
2021/09/27 07:33:55;;;;;;;;;;;17.70;99.90;;;;;;5083318;28;19946;-86
2021/09/27 07:36:22;;;;;;;;;;;17.70;99.90;;;;;;5084506;28;20396;-85
2021/09/27 07:38:48;;;;;;;;;;;17.80;99.90;;;;;;5083930;28;19938;-86
2021/09/27 07:41:15;;;;;;;;;;;17.80;99.90;;;;;;5084752;28;19942;-86
2021/09/27 07:43:41;;;;;;;;;;;17.80;99.90;;;;;;5083857;28;20392;-85
2021/09/27 07:46:09;;;;;;;;;;;17.80;99.90;;;;;;5084087;28;20345;-85
2021/09/27 07:48:36;;;;;;;;;;;17.90;99.90;;;;;;5084580;28;19947;-86
2021/09/27 07:51:03;;;;;;;;;;;17.90;99.90;;;;;;5093350;28;19982;-85
2021/09/27 07:53:30;;;;;;;;;;;18.00;99.90;;;;;;5100931;28;19930;-85
2021/09/27 07:55:56;;;;;;;;;;;18.10;99.90;;;;;;5100684;28;19962;-85
2021/09/27 07:58:24;;;;;;;;;;;18.10;99.90;;;;;;5097256;28;19975;-85
2021/09/27 08:00:51;;;;;;;;;;;18.20;99.90;;;;;;5083698;28;20364;-85
2021/09/27 08:03:20;;;;;;;;;;;18.20;99.90;;;;;;5087183;28;19947;-85
2021/09/27 08:05:46;;;;;;;;;;;18.20;99.90;;;;;;5084802;28;19959;-84
2021/09/27 08:08:13;;;;;;;;;;;18.30;99.90;;;;;;5082584;28;19948;-85
2021/09/27 08:10:40;;;;;;;;;;;18.30;99.90;;;;;;5082379;28;19958;-85
2021/09/27 08:13:07;;;;;;;;;;;18.30;99.90;;;;;;5080899;28;19987;-85
2021/09/27 08:15:34;;;;;;;;;;;18.30;99.90;;;;;;5081389;28;19959;-85
2021/09/27 08:18:01;;;;;;;;;;;18.30;99.90;;;;;;5082101;28;19943;-85
2021/09/27 08:20:31;;;;;;;;;;;18.20;99.90;;;;;;5082538;28;20051;-85
2021/09/27 08:22:58;;;;;;;;;;;18.30;99.90;;;;;;5082239;28;19947;-85
2021/09/27 08:25:25;;;;;;;;;;;18.30;99.90;;;;;;5082195;28;20021;-85
2021/09/27 08:27:52;;;;;;;;;;;18.30;99.90;;;;;;5083170;28;19986;-85
2021/09/27 08:30:21;;;;;;;;;;;18.40;99.90;;;;;;5082075;28;20003;-85
2021/09/27 08:32:48;;;;;;;;;;;18.40;99.90;;;;;;5086383;28;19943;-85
2021/09/27 08:35:15;;;;;;;;;;;18.40;99.90;;;;;;5083341;28;19965;-85
2021/09/27 08:37:43;;;;;;;;;;;18.30;99.90;;;;;;5084344;28;19981;-85
2021/09/27 08:40:11;;;;;;;;;;;18.30;99.90;;;;;;5082726;28;19949;-85
2021/09/27 08:42:40;;;;;;;;;;;18.40;99.90;;;;;;5081369;28;19968;-85
2021/09/27 08:45:09;;;;;;;;;;;18.40;99.90;;;;;;5081853;28;19945;-85
2021/09/27 08:47:40;;;;;;;;;;;18.50;99.90;;;;;;5082662;28;20335;-85
2021/09/27 08:50:08;;;;;;;;;;;18.50;99.90;;;;;;5092815;28;19968;-85
2021/09/27 08:52:36;;;;;;;;;;;18.60;99.90;;;;;;5100611;28;19933;-85
2021/09/27 08:55:07;;;;;;;;;;;18.60;99.90;;;;;;5100817;28;19960;-85
2021/09/27 08:57:43;;;;;;;;;;;18.60;99.90;;;;;;5100628;28;20012;-85
2021/09/27 09:00:15;;;;;;;;;;;18.50;99.90;;;;;;5094410;28;19925;-85
2021/09/27 09:02:47;;;;;;;;;;;18.50;99.90;;;;;;5091994;28;19941;-85
2021/09/27 09:05:15;;;;;;;;;;;18.40;99.90;;;;;;5082853;28;20017;-85
2021/09/27 09:07:48;;;;;;;;;;;18.50;99.90;;;;;;5080991;28;19950;-84
2021/09/27 09:10:21;;;;;;;;;;;18.50;99.90;;;;;;5080483;28;19954;-86
2021/09/27 09:12:50;;;;;;;;;;;18.50;99.90;;;;;;5080783;28;19994;-86
2021/09/27 09:15:19;;;;;;;;;;;18.50;99.90;;;;;;5080615;28;20429;-86
2021/09/27 09:17:47;;;;;;;;;;;18.40;99.90;;;;;;5084254;28;19965;-85
2021/09/27 09:20:16;;;;;;;;;;;18.40;99.90;;;;;;5097038;28;19943;-84
2021/09/27 09:22:43;;;;;;;;;;;18.50;99.90;;;;;;5098988;28;19946;-85
2021/09/27 09:25:11;;;;;;;;;;;18.50;99.90;;;;;;5099247;28;19925;-84
2021/09/27 09:27:40;;;;;;;;;;;18.60;99.90;;;;;;5099121;28;19933;-84
2021/09/27 09:30:08;;;;;;;;;;;18.60;99.90;;;;;;5098752;28;19933;-83
2021/09/27 09:32:35;;;;;;;;;;;18.60;99.90;;;;;;5098774;28;19970;-85
2021/09/27 09:35:14;;;;;;;;;;;18.60;99.90;;;;;;5098203;28;19947;-85
2021/09/27 09:37:41;;;;;;;;;;;18.70;99.90;;;;;;5099647;28;19943;-84
2021/09/27 09:40:16;;;;;;;;;;;18.60;99.90;;;;;;5082585;28;19990;-86
2021/09/27 09:42:53;;;;;;;;;;;18.70;99.90;;;;;;5082155;28;19941;-86
2021/09/27 09:45:23;;;;;;;;;;;18.70;99.90;;;;;;5080300;28;20011;-86
2021/09/27 09:47:50;;;;;;;;;;;18.80;99.90;;;;;;5081464;28;19947;-86
2021/09/27 09:50:28;;;;;;;;;;;18.90;99.90;;;;;;5081005;28;19939;-86
2021/09/27 09:52:55;;;;;;;;;;;19.00;99.90;;;;;;5078860;28;19941;-84
2021/09/27 09:55:23;;;;;;;;;;;19.00;99.90;;;;;;5080996;28;19961;-84
2021/09/27 09:57:58;;;;;;;;;;;19.00;99.90;;;;;;5098106;28;19935;-85
2021/09/27 10:00:41;;;;;;;;;;;18.90;99.90;;;;;;5098770;28;19997;-85
2021/09/27 10:03:08;;;;;;;;;;;19.00;99.90;;;;;;5098831;28;19951;-85
2021/09/27 10:05:41;;;;;;;;;;;19.00;99.90;;;;;;5091578;28;19960;-85
2021/09/27 10:08:15;;;;;;;;;;;19.00;99.90;;;;;;5088263;28;19978;-84
2021/09/27 10:10:43;;;;;;;;;;;19.00;99.90;;;;;;5083258;28;19960;-84
2021/09/27 10:26:42;;;;;;;;;;;19.00;99.90;;;;;;5019454;27;3892805;-84
2021/09/27 10:29:26;;;;;;;;;;;19.20;99.90;;;;;;5141199;28;19952;-84
2021/09/27 10:32:01;;;;;;;;;;;18.90;99.90;;;;;;5138585;28;19944;-85
2021/09/27 10:34:36;;;;;;;;;;;19.00;99.90;;;;;;5139304;28;19956;-85
2021/09/27 10:37:21;;;;;;;;;;;19.20;99.90;;;;;;5139860;28;20375;-85
2021/09/27 10:40:04;;;;;;;;;;;19.30;99.90;;;;;;5151599;28;20005;-85
2021/09/27 10:42:46;;;;;;;;;;;20.80;99.90;;;;;;5141773;28;19982;-85
2021/09/27 10:45:17;;;;;;;;;;;19.30;99.90;;;;;;5139214;28;19962;-85
2021/09/27 10:47:45;;;;;;;;;;;19.40;99.90;;;;;;5139472;28;19948;-85
2021/09/27 10:50:14;;;;;;;;;;;19.20;99.90;;;;;;5140093;28;19951;-85
2021/09/27 10:52:43;;;;;;;;;;;19.20;99.90;;;;;;5142361;28;19946;-85
2021/09/27 10:55:14;;;;;;;;;;;19.40;99.90;;;;;;5148076;28;19962;-85
2021/09/27 10:57:46;;;;;;;;;;;19.40;99.90;;;;;;5148203;28;19951;-85
2021/09/27 11:00:17;;;;;;;;;;;19.40;99.90;;;;;;5149354;28;19951;-84
2021/09/27 11:02:46;;;;;;;;;;;19.50;99.90;;;;;;5153506;28;19959;-84
2021/09/27 11:05:14;;;;;;;;;;;19.50;99.90;;;;;;5153993;28;19969;-83
2021/09/27 11:07:42;;;;;;;;;;;19.60;99.90;;;;;;5155828;28;19938;-82
2021/09/27 11:10:13;;;;;;;;;;;19.60;99.90;;;;;;5155934;28;19949;-84
2021/09/27 11:12:43;;;;;;;;;;;19.70;99.90;;;;;;5156184;28;19926;-84
2021/09/27 11:15:22;;;;;;;;;;;19.80;99.90;;;;;;5156184;28;20023;-82
2021/09/27 11:17:49;;;;;;;;;;;19.90;99.90;;;;;;5155638;28;19937;-81
2021/09/27 11:20:22;;;;;;;;;;;20.10;99.90;;;;;;5155419;28;19946;-84
2021/09/27 11:23:05;;;;;;;;;;;20.10;99.90;;;;;;5155242;28;19931;-84
2021/09/27 11:25:35;;;;;;;;;;;20.20;99.90;;;;;;5152531;28;19950;-82
2021/09/27 11:28:13;;;;;;;;;;;20.10;99.90;;;;;;5142120;28;19929;-85
2021/09/27 11:30:44;;;;;;;;;;;20.10;99.90;;;;;;5142045;28;19931;-85
2021/09/27 11:33:34;;;;;;;;;;;20.10;99.90;;;;;;5140744;28;19936;-83
2021/09/27 11:36:04;;;;;;;;;;;20.00;99.90;;;;;;5139359;28;19967;-84
2021/09/27 11:38:35;;;;;;;;;;;20.00;99.90;;;;;;5140798;28;19954;-84
2021/09/27 11:41:23;;;;;;;;;;;20.00;99.90;;;;;;5141460;28;19948;-84
2021/09/27 11:43:57;;;;;;;;;;;20.00;99.90;;;;;;5139374;28;19934;-85
2021/09/27 11:46:26;;;;;;;;;;;20.00;99.90;;;;;;5141523;28;20011;-84
2021/09/27 11:48:57;;;;;;;;;;;20.00;99.90;;;;;;5141018;28;19959;-85
2021/09/27 11:51:25;;;;;;;;;;;20.10;99.90;;;;;;5141504;28;19951;-83
2021/09/27 11:54:01;;;;;;;;;;;20.00;99.90;;;;;;5141790;28;19929;-84
2021/09/27 11:56:30;;;;;;;;;;;20.00;99.90;;;;;;5141590;28;19957;-84
2021/09/27 11:59:04;;;;;;;;;;;20.10;99.90;;;;;;5141072;28;19941;-86
2021/09/27 12:01:36;;;;;;;;;;;20.10;99.90;;;;;;5141241;28;19928;-83
2021/09/27 12:04:05;;;;;;;;;;;20.10;99.90;;;;;;5141396;28;19924;-82
2021/09/27 12:06:35;;;;;;;;;;;20.10;99.90;;;;;;5141270;28;19970;-83
2021/09/27 12:09:03;;;;;;;;;;;20.20;99.90;;;;;;5141296;28;19934;-84
2021/09/27 12:11:32;;;;;;;;;;;20.20;99.90;;;;;;5141178;28;19994;-84
2021/09/27 12:14:01;;;;;;;;;;;20.30;99.90;;;;;;5141216;28;19970;-84
2021/09/27 12:16:30;;;;;;;;;;;20.30;99.90;;;;;;5141074;28;19952;-83
2021/09/27 12:18:59;;;;;;;;;;;20.20;99.90;;;;;;5141043;28;19963;-82
2021/09/27 12:21:27;;;;;;;;;;;20.40;99.90;;;;;;5141342;28;20005;-83
2021/09/27 12:23:55;;;;;;;;;;;20.40;99.90;;;;;;5141177;28;19953;-84
2021/09/27 12:26:23;;;;;;;;;;;20.30;99.90;;;;;;5140938;28;19971;-83
2021/09/27 12:28:59;;;;;;;;;;;20.30;99.90;;;;;;5141204;28;19931;-82
2021/09/27 12:31:26;;;;;;;;;;;20.30;99.90;;;;;;5140794;28;19929;-84
2021/09/27 12:33:53;;;;;;;;;;;20.30;99.90;;;;;;5140878;28;19935;-83
2021/09/27 12:36:21;;;;;;;;;;;20.40;99.90;;;;;;5140822;28;19957;-84
2021/09/27 12:38:54;;;;;;;;;;;20.50;99.90;;;;;;5139736;28;19941;-85
2021/09/27 12:41:22;;;;;;;;;;;20.40;99.90;;;;;;5140084;28;19941;-85
2021/09/27 12:43:49;;;;;;;;;;;20.40;99.90;;;;;;5140891;28;20007;-83
2021/09/27 12:46:17;;;;;;;;;;;20.40;99.90;;;;;;5140259;28;19956;-84
2021/09/27 12:48:49;;;;;;;;;;;20.40;99.90;;;;;;5140235;28;19935;-83
2021/09/27 12:51:20;;;;;;;;;;;20.40;99.90;;;;;;5140447;28;19930;-85
2021/09/27 12:53:51;;;;;;;;;;;20.40;99.90;;;;;;5140435;28;19929;-83
2021/09/27 12:56:18;;;;;;;;;;;20.50;99.90;;;;;;5139972;28;19957;-84
2021/09/27 12:58:45;;;;;;;;;;;20.40;99.90;;;;;;5140183;28;19935;-83
2021/09/27 13:01:13;;;;;;;;;;;20.50;99.90;;;;;;5137555;28;19952;-85
2021/09/27 13:03:42;;;;;;;;;;;20.50;99.90;;;;;;5130774;28;19950;-85
2021/09/27 13:06:14;;;;;;;;;;;20.50;99.90;;;;;;5126112;28;19968;-85
2021/09/27 13:08:46;;;;;;;;;;;20.50;99.90;;;;;;5125192;28;20252;-85
2021/09/27 13:11:25;;;;;;;;;;;20.60;99.90;;;;;;5125497;28;19940;-85
2021/09/27 13:13:58;;;;;;;;;;;20.60;99.90;;;;;;5124734;28;19942;-84
2021/09/27 13:16:27;;;;;;;;;;;20.70;99.90;;;;;;5123917;28;19970;-86
2021/09/27 13:18:53;;;;;;;;;;;20.80;99.90;;;;;;5128687;28;19977;-85
2021/09/27 13:21:24;;;;;;;;;;;20.80;99.90;;;;;;5133184;28;19948;-85
2021/09/27 13:23:53;;;;;;;;;;;20.80;99.90;;;;;;5130837;28;19946;-85
2021/09/27 13:26:22;;;;;;;;;;;20.80;99.90;;;;;;5125567;28;19963;-85
2021/09/27 13:28:55;;;;;;;;;;;20.80;99.90;;;;;;5126310;28;19949;-86
2021/09/27 13:31:26;;;;;;;;;;;20.70;99.90;;;;;;5125749;28;19991;-84
2021/09/27 13:33:53;;;;;;;;;;;20.70;99.90;;;;;;5124276;28;19963;-84
2021/09/27 13:36:30;;;;;;;;;;;20.60;99.90;;;;;;5125203;28;19967;-85
2021/09/27 13:38:58;;;;;;;;;;;20.60;99.90;;;;;;5124725;28;19944;-84
2021/09/27 13:41:26;;;;;;;;;;;20.60;99.90;;;;;;5127961;28;20330;-84
2021/09/27 13:43:54;;;;;;;;;;;20.60;99.90;;;;;;5134010;28;19956;-86
2021/09/27 13:46:22;;;;;;;;;;;20.60;99.90;;;;;;5132943;28;19963;-84
2021/09/27 13:48:49;;;;;;;;;;;20.60;99.90;;;;;;5133261;28;20042;-84
2021/09/27 13:51:17;;;;;;;;;;;20.60;99.90;;;;;;5135193;28;19951;-84
2021/09/27 13:53:47;;;;;;;;;;;20.50;99.90;;;;;;5133966;28;19943;-84
2021/09/27 13:56:15;;;;;;;;;;;20.50;99.90;;;;;;5133785;28;19981;-84
2021/09/27 13:58:42;;;;;;;;;;;20.50;99.90;;;;;;5133454;28;19957;-85
2021/09/27 14:01:09;;;;;;;;;;;20.50;99.90;;;;;;5132457;28;19958;-85
2021/09/27 14:03:35;;;;;;;;;;;20.50;99.90;;;;;;5127822;28;19953;-84
2021/09/27 14:06:02;;;;;;;;;;;20.40;99.90;;;;;;5125298;28;19967;-84
2021/09/27 14:08:29;;;;;;;;;;;20.40;99.90;;;;;;5128871;28;19952;-85
2021/09/27 14:10:57;;;;;;;;;;;20.40;99.90;;;;;;5124133;28;19941;-85
2021/09/27 14:13:28;;;;;;;;;;;20.40;99.90;;;;;;5121384;28;20003;-84
2021/09/27 14:15:55;;;;;;;;;;;20.40;99.90;;;;;;5120550;28;19967;-85
2021/09/27 14:18:22;;;;;;;;;;;20.50;99.90;;;;;;5121025;28;19944;-85
2021/09/27 14:20:49;;;;;;;;;;;20.50;99.90;;;;;;5120387;28;20032;-84
2021/09/27 14:23:15;;;;;;;;;;;20.40;99.90;;;;;;5121866;28;19945;-85
2021/09/27 14:25:42;;;;;;;;;;;20.40;99.90;;;;;;5121497;28;20344;-84
2021/09/27 14:28:11;;;;;;;;;;;20.40;99.90;;;;;;5121985;28;19987;-84
2021/09/27 14:30:37;;;;;;;;;;;20.40;99.90;;;;;;5122199;28;19947;-84
2021/09/27 14:33:04;;;;;;;;;;;20.30;99.90;;;;;;5122606;28;20295;-84
2021/09/27 14:35:31;;;;;;;;;;;20.30;99.90;;;;;;5121229;28;20381;-84
2021/09/27 14:37:58;;;;;;;;;;;20.30;99.90;;;;;;5121743;28;19943;-84
2021/09/27 14:40:25;;;;;;;;;;;20.30;99.90;;;;;;5122092;28;19946;-84
2021/09/27 14:42:51;;;;;;;;;;;20.30;99.90;;;;;;5123126;28;20002;-84
2021/09/27 14:45:20;;;;;;;;;;;20.30;99.90;;;;;;5125564;28;19959;-85
2021/09/27 14:47:47;;;;;;;;;;;20.30;99.90;;;;;;5122375;28;19944;-85
2021/09/27 14:50:15;;;;;;;;;;;20.30;99.90;;;;;;5122684;28;19944;-84